createdAt,value
2023-04-02T00:00:26.001Z,1017.85
2023-04-02T00:01:26.000Z,1017.85
2023-04-02T00:02:26.065Z,1017.88
2023-04-02T00:03:26.110Z,1017.88
2023-04-02T00:04:26.017Z,1017.91
2023-04-02T00:05:26.012Z,1017.91
2023-04-02T00:06:26.010Z,1017.88
2023-04-02T00:07:26.015Z,1017.93
2023-04-02T00:08:26.012Z,1017.99
2023-04-02T00:09:26.040Z,1017.96
2023-04-02T00:10:26.021Z,1018.00
2023-04-02T00:11:26.022Z,1018.04
2023-04-02T00:12:26.031Z,1018.03
2023-04-02T00:13:26.038Z,1018.05
2023-04-02T00:14:26.030Z,1018.09
2023-04-02T00:15:26.030Z,1018.10
2023-04-02T00:16:26.088Z,1018.11
2023-04-02T00:17:26.032Z,1018.12
2023-04-02T00:18:26.057Z,1018.12
2023-04-02T00:19:26.033Z,1018.11
2023-04-02T00:20:26.044Z,1018.12
2023-04-02T00:21:26.047Z,1018.15
2023-04-02T00:22:26.065Z,1018.18
2023-04-02T00:23:26.042Z,1018.18
2023-04-02T00:24:26.250Z,1018.17
2023-04-02T00:25:26.079Z,1018.16
2023-04-02T00:26:26.054Z,1018.18
2023-04-02T00:27:26.058Z,1018.23
2023-04-02T00:28:26.061Z,1018.27
2023-04-02T00:29:26.057Z,1018.24
2023-04-02T00:30:26.061Z,1018.24
2023-04-02T00:31:26.158Z,1018.26
2023-04-02T00:32:26.245Z,1018.31
2023-04-02T00:33:26.063Z,1018.28
2023-04-02T00:34:26.071Z,1018.31
2023-04-02T00:35:26.218Z,1018.34
2023-04-02T00:36:26.073Z,1018.31
2023-04-02T00:37:26.077Z,1018.31
2023-04-02T00:38:26.077Z,1018.37
2023-04-02T00:39:26.078Z,1018.36
2023-04-02T00:40:26.083Z,1018.37
2023-04-02T00:41:26.101Z,1018.36
2023-04-02T00:42:26.102Z,1018.39
2023-04-02T00:43:26.092Z,1018.45
2023-04-02T00:44:26.092Z,1018.42
2023-04-02T00:45:26.088Z,1018.45
2023-04-02T00:46:26.171Z,1018.49
2023-04-02T00:47:26.097Z,1018.51
2023-04-02T00:48:26.094Z,1018.50
2023-04-02T00:49:26.099Z,1018.53
2023-04-02T00:50:26.098Z,1018.55
2023-04-02T00:51:26.267Z,1018.59
2023-04-02T00:52:26.104Z,1018.58
2023-04-02T00:53:26.103Z,1018.61
2023-04-02T00:54:26.112Z,1018.59
2023-04-02T00:55:26.118Z,1018.61
2023-04-02T00:56:26.110Z,1018.60
2023-04-02T00:57:26.174Z,1018.61
2023-04-02T00:58:26.116Z,1018.59
2023-04-02T00:59:26.124Z,1018.60
2023-04-02T01:00:26.118Z,1018.60
2023-04-02T01:01:26.126Z,1018.68
2023-04-02T01:02:26.239Z,1018.64
2023-04-02T01:03:26.199Z,1018.67
2023-04-02T01:04:26.124Z,1018.68
2023-04-02T01:05:26.126Z,1018.68
2023-04-02T01:06:26.127Z,1018.69
2023-04-02T01:07:26.277Z,1018.74
2023-04-02T01:08:26.133Z,1018.77
2023-04-02T01:09:26.135Z,1018.70
2023-04-02T01:10:26.135Z,1018.77
2023-04-02T01:11:26.133Z,1018.80
2023-04-02T01:12:26.136Z,1018.74
2023-04-02T01:13:26.163Z,1018.83
2023-04-02T01:14:26.140Z,1018.79
2023-04-02T01:15:26.147Z,1018.79
2023-04-02T01:16:26.170Z,1018.84
2023-04-02T01:17:26.180Z,1018.80
2023-04-02T01:18:26.146Z,1018.83
2023-04-02T01:19:26.150Z,1018.81
2023-04-02T01:20:26.146Z,1018.82
2023-04-02T01:21:26.165Z,1018.81
2023-04-02T01:22:26.151Z,1018.85
2023-04-02T01:23:26.457Z,1018.86
2023-04-02T01:24:26.157Z,1018.86
2023-04-02T01:25:26.162Z,1018.90
2023-04-02T01:26:26.157Z,1018.88
2023-04-02T01:27:26.170Z,1018.88
2023-04-02T01:28:26.163Z,1018.87
2023-04-02T01:29:26.198Z,1018.89
2023-04-02T01:30:26.197Z,1018.88
2023-04-02T01:31:26.196Z,1018.91
2023-04-02T01:32:26.265Z,1018.87
2023-04-02T01:33:26.174Z,1018.89
2023-04-02T01:34:26.714Z,1018.92
2023-04-02T01:35:26.175Z,1018.89
2023-04-02T01:36:26.174Z,1018.93
2023-04-02T01:37:26.181Z,1018.95
2023-04-02T01:38:26.223Z,1018.91
2023-04-02T01:39:26.186Z,1018.92
2023-04-02T01:40:26.184Z,1018.94
2023-04-02T01:41:26.184Z,1018.93
2023-04-02T01:42:26.184Z,1018.95
2023-04-02T01:43:26.188Z,1018.98
2023-04-02T01:44:26.187Z,1018.99
2023-04-02T01:45:26.228Z,1019.03
2023-04-02T01:46:26.248Z,1018.99
2023-04-02T01:47:26.231Z,1019.00
2023-04-02T01:48:26.197Z,1019.07
2023-04-02T01:49:26.200Z,1019.09
2023-04-02T01:50:26.198Z,1019.10
2023-04-02T01:51:26.206Z,1019.10
2023-04-02T01:52:26.204Z,1019.09
2023-04-02T01:53:26.218Z,1019.11
2023-04-02T01:54:26.203Z,1019.15
2023-04-02T01:55:26.210Z,1019.11
2023-04-02T01:56:26.206Z,1019.13
2023-04-02T01:57:26.278Z,1019.13
2023-04-02T01:58:26.215Z,1019.17
2023-04-02T01:59:26.222Z,1019.17
2023-04-02T02:00:26.344Z,1019.20
2023-04-02T02:01:26.334Z,1019.24
2023-04-02T02:02:26.265Z,1019.25
2023-04-02T02:03:26.231Z,1019.27
2023-04-02T02:04:26.224Z,1019.28
2023-04-02T02:05:26.227Z,1019.29
2023-04-02T02:06:26.228Z,1019.29
2023-04-02T02:07:26.232Z,1019.34
2023-04-02T02:08:26.229Z,1019.31
2023-04-02T02:09:26.234Z,1019.30
2023-04-02T02:10:26.242Z,1019.32
2023-04-02T02:11:26.251Z,1019.32
2023-04-02T02:12:26.240Z,1019.36
2023-04-02T02:13:26.243Z,1019.40
2023-04-02T02:14:26.243Z,1019.42
2023-04-02T02:15:26.245Z,1019.49
2023-04-02T02:16:26.277Z,1019.48
2023-04-02T02:17:26.316Z,1019.49
2023-04-02T02:18:26.256Z,1019.51
2023-04-02T02:19:26.253Z,1019.51
2023-04-02T02:20:26.266Z,1019.52
2023-04-02T02:21:26.269Z,1019.49
2023-04-02T02:22:26.262Z,1019.55
2023-04-02T02:23:26.261Z,1019.57
2023-04-02T02:24:26.264Z,1019.55
2023-04-02T02:25:26.265Z,1019.55
2023-04-02T02:26:26.266Z,1019.56
2023-04-02T02:27:26.282Z,1019.59
2023-04-02T02:28:26.271Z,1019.62
2023-04-02T02:29:26.272Z,1019.68
2023-04-02T02:30:26.272Z,1019.65
2023-04-02T02:31:26.314Z,1019.64
2023-04-02T02:32:26.320Z,1019.70
2023-04-02T02:33:26.318Z,1019.71
2023-04-02T02:34:26.294Z,1019.74
2023-04-02T02:35:26.283Z,1019.74
2023-04-02T02:36:26.334Z,1019.76
2023-04-02T02:37:26.293Z,1019.79
2023-04-02T02:38:26.290Z,1019.80
2023-04-02T02:39:26.289Z,1019.80
2023-04-02T02:40:26.300Z,1019.84
2023-04-02T02:41:26.310Z,1019.89
2023-04-02T02:42:26.300Z,1019.92
2023-04-02T02:43:26.302Z,1019.85
2023-04-02T02:44:26.302Z,1019.90
2023-04-02T02:45:26.318Z,1019.93
2023-04-02T02:46:26.468Z,1019.91
2023-04-02T02:47:26.357Z,1019.94
2023-04-02T02:48:26.303Z,1019.97
2023-04-02T02:49:26.344Z,1020.01
2023-04-02T02:50:26.307Z,1020.02
2023-04-02T02:51:26.312Z,1020.02
2023-04-02T02:52:26.307Z,1020.00
2023-04-02T02:53:26.333Z,1020.04
2023-04-02T02:54:26.320Z,1020.06
2023-04-02T02:55:26.313Z,1020.07
2023-04-02T02:56:26.312Z,1020.09
2023-04-02T02:57:26.425Z,1020.15
2023-04-02T02:58:26.322Z,1020.15
2023-04-02T02:59:26.350Z,1020.15
2023-04-02T03:00:26.336Z,1020.15
2023-04-02T03:01:26.349Z,1020.14
2023-04-02T03:02:26.395Z,1020.17
2023-04-02T03:03:26.834Z,1020.20
2023-04-02T03:04:26.357Z,1020.17
2023-04-02T03:05:26.361Z,1020.20
2023-04-02T03:06:26.326Z,1020.20
2023-04-02T03:07:26.333Z,1020.20
2023-04-02T03:08:26.334Z,1020.23
2023-04-02T03:09:26.340Z,1020.26
2023-04-02T03:10:26.337Z,1020.24
2023-04-02T03:11:26.345Z,1020.24
2023-04-02T03:12:26.344Z,1020.29
2023-04-02T03:13:26.361Z,1020.27
2023-04-02T03:14:26.373Z,1020.24
2023-04-02T03:15:26.368Z,1020.26
2023-04-02T03:16:26.411Z,1020.29
2023-04-02T03:17:26.410Z,1020.27
2023-04-02T03:18:26.350Z,1020.32
2023-04-02T03:19:26.356Z,1020.33
2023-04-02T03:20:26.397Z,1020.36
2023-04-02T03:21:26.381Z,1020.37
2023-04-02T03:22:26.358Z,1020.39
2023-04-02T03:23:26.363Z,1020.37
2023-04-02T03:24:26.403Z,1020.39
2023-04-02T03:25:26.362Z,1020.39
2023-04-02T03:26:26.386Z,1020.40
2023-04-02T03:27:26.441Z,1020.43
2023-04-02T03:28:26.405Z,1020.48
2023-04-02T03:29:26.512Z,1020.44
2023-04-02T03:30:26.478Z,1020.53
2023-04-02T03:31:26.423Z,1020.54
2023-04-02T03:32:26.532Z,1020.54
2023-04-02T03:33:26.592Z,1020.55
2023-04-02T03:34:26.437Z,1020.57
2023-04-02T03:35:26.512Z,1020.57
2023-04-02T03:36:26.477Z,1020.58
2023-04-02T03:37:26.410Z,1020.57
2023-04-02T03:38:26.537Z,1020.57
2023-04-02T03:39:26.395Z,1020.64
2023-04-02T03:40:26.397Z,1020.65
2023-04-02T03:41:26.389Z,1020.66
2023-04-02T03:42:26.399Z,1020.64
2023-04-02T03:43:26.608Z,1020.68
2023-04-02T03:44:26.398Z,1020.64
2023-04-02T03:45:26.412Z,1020.66
2023-04-02T03:46:26.448Z,1020.73
2023-04-02T03:47:26.425Z,1020.77
2023-04-02T03:48:26.425Z,1020.76
2023-04-02T03:49:26.411Z,1020.76
2023-04-02T03:50:26.415Z,1020.73
2023-04-02T03:51:26.418Z,1020.77
2023-04-02T03:52:26.414Z,1020.79
2023-04-02T03:53:26.441Z,1020.78
2023-04-02T03:54:26.425Z,1020.83
2023-04-02T03:55:26.423Z,1020.89
2023-04-02T03:56:26.437Z,1020.87
2023-04-02T03:57:26.476Z,1020.92
2023-04-02T03:58:26.423Z,1020.94
2023-04-02T03:59:26.434Z,1020.95
2023-04-02T04:00:26.427Z,1020.94
2023-04-02T04:01:26.442Z,1020.95
2023-04-02T04:02:26.573Z,1020.94
2023-04-02T04:03:26.425Z,1020.95
2023-04-02T04:04:26.475Z,1020.97
2023-04-02T04:05:26.441Z,1020.98
2023-04-02T04:06:26.433Z,1020.95
2023-04-02T04:07:26.441Z,1020.94
2023-04-02T04:08:26.587Z,1020.97
2023-04-02T04:09:26.472Z,1021.03
2023-04-02T04:10:26.442Z,1021.03
2023-04-02T04:11:26.489Z,1021.02
2023-04-02T04:12:26.459Z,1021.05
2023-04-02T04:13:26.448Z,1021.05
2023-04-02T04:14:26.448Z,1021.06
2023-04-02T04:15:26.465Z,1021.11
2023-04-02T04:16:26.480Z,1021.10
2023-04-02T04:17:26.486Z,1021.10
2023-04-02T04:18:26.500Z,1021.09
2023-04-02T04:19:26.458Z,1021.14
2023-04-02T04:20:26.457Z,1021.16
2023-04-02T04:21:26.461Z,1021.14
2023-04-02T04:22:26.459Z,1021.14
2023-04-02T04:23:26.467Z,1021.08
2023-04-02T04:24:26.479Z,1021.15
2023-04-02T04:25:26.485Z,1021.21
2023-04-02T04:26:26.470Z,1021.21
2023-04-02T04:27:26.474Z,1021.20
2023-04-02T04:28:26.470Z,1021.21
2023-04-02T04:29:26.476Z,1021.18
2023-04-02T04:30:26.479Z,1021.23
2023-04-02T04:31:26.497Z,1021.25
2023-04-02T04:32:26.515Z,1021.21
2023-04-02T04:33:26.484Z,1021.23
2023-04-02T04:34:26.489Z,1021.24
2023-04-02T04:35:26.545Z,1021.28
2023-04-02T04:36:26.482Z,1021.27
2023-04-02T04:37:26.487Z,1021.31
2023-04-02T04:38:26.641Z,1021.33
2023-04-02T04:39:26.487Z,1021.36
2023-04-02T04:40:26.487Z,1021.33
2023-04-02T04:41:26.517Z,1021.35
2023-04-02T04:42:26.500Z,1021.35
2023-04-02T04:43:26.497Z,1021.37
2023-04-02T04:44:26.503Z,1021.37
2023-04-02T04:45:26.500Z,1021.40
2023-04-02T04:46:26.569Z,1021.41
2023-04-02T04:47:26.550Z,1021.46
2023-04-02T04:48:26.714Z,1021.48
2023-04-02T04:49:26.522Z,1021.44
2023-04-02T04:50:26.508Z,1021.44
2023-04-02T04:51:26.513Z,1021.46
2023-04-02T04:52:26.513Z,1021.50
2023-04-02T04:53:26.766Z,1021.50
2023-04-02T04:54:26.524Z,1021.53
2023-04-02T04:55:26.534Z,1021.52
2023-04-02T04:56:26.525Z,1021.58
2023-04-02T04:57:26.665Z,1021.57
2023-04-02T04:58:26.522Z,1021.58
2023-04-02T04:59:26.534Z,1021.62
2023-04-02T05:00:26.527Z,1021.60
2023-04-02T05:01:26.549Z,1021.61
2023-04-02T05:02:26.540Z,1021.65
2023-04-02T05:03:26.528Z,1021.70
2023-04-02T05:04:26.548Z,1021.74
2023-04-02T05:05:26.535Z,1021.72
2023-04-02T05:06:26.542Z,1021.75
2023-04-02T05:07:26.539Z,1021.76
2023-04-02T05:08:26.540Z,1021.78
2023-04-02T05:09:26.556Z,1021.76
2023-04-02T05:10:26.546Z,1021.77
2023-04-02T05:11:26.545Z,1021.78
2023-04-02T05:12:26.542Z,1021.78
2023-04-02T05:13:26.571Z,1021.80
2023-04-02T05:14:26.557Z,1021.84
2023-04-02T05:15:26.548Z,1021.85
2023-04-02T05:16:26.570Z,1021.82
2023-04-02T05:17:26.632Z,1021.84
2023-04-02T05:18:26.606Z,1021.85
2023-04-02T05:19:26.556Z,1021.90
2023-04-02T05:20:26.568Z,1021.92
2023-04-02T05:21:26.567Z,1021.92
2023-04-02T05:22:26.561Z,1021.97
2023-04-02T05:23:26.563Z,1021.95
2023-04-02T05:24:26.559Z,1022.01
2023-04-02T05:25:26.577Z,1022.03
2023-04-02T05:26:26.567Z,1022.06
2023-04-02T05:27:26.568Z,1022.09
2023-04-02T05:28:26.569Z,1022.03
2023-04-02T05:29:26.589Z,1022.12
2023-04-02T05:30:26.576Z,1022.14
2023-04-02T05:31:26.595Z,1022.10
2023-04-02T05:32:26.611Z,1022.13
2023-04-02T05:33:26.583Z,1022.09
2023-04-02T05:34:26.588Z,1022.11
2023-04-02T05:35:26.600Z,1022.15
2023-04-02T05:36:26.630Z,1022.17
2023-04-02T05:37:26.589Z,1022.21
2023-04-02T05:38:26.602Z,1022.23
2023-04-02T05:39:26.595Z,1022.27
2023-04-02T05:40:26.595Z,1022.29
2023-04-02T05:41:26.588Z,1022.29
2023-04-02T05:42:26.597Z,1022.28
2023-04-02T05:43:26.594Z,1022.29
2023-04-02T05:44:26.605Z,1022.29
2023-04-02T05:45:26.640Z,1022.32
2023-04-02T05:46:26.623Z,1022.30
2023-04-02T05:47:26.649Z,1022.34
2023-04-02T05:48:26.604Z,1022.34
2023-04-02T05:49:26.611Z,1022.33
2023-04-02T05:50:26.613Z,1022.35
2023-04-02T05:51:26.614Z,1022.33
2023-04-02T05:52:26.613Z,1022.32
2023-04-02T05:53:26.622Z,1022.31
2023-04-02T05:54:26.616Z,1022.38
2023-04-02T05:55:26.618Z,1022.37
2023-04-02T05:56:26.622Z,1022.37
2023-04-02T05:57:39.458Z,1022.40
2023-04-02T05:58:35.253Z,1022.40
2023-04-02T05:59:26.621Z,1022.36
2023-04-02T06:00:26.629Z,1022.40
2023-04-02T06:01:26.657Z,1022.45
2023-04-02T06:02:26.711Z,1022.44
2023-04-02T06:03:26.754Z,1022.47
2023-04-02T06:04:26.640Z,1022.47
2023-04-02T06:05:26.626Z,1022.48
2023-04-02T06:06:26.649Z,1022.44
2023-04-02T06:07:26.635Z,1022.48
2023-04-02T06:08:26.646Z,1022.50
2023-04-02T06:09:26.644Z,1022.53
2023-04-02T06:10:26.643Z,1022.53
2023-04-02T06:11:26.644Z,1022.53
2023-04-02T06:12:26.653Z,1022.48
2023-04-02T06:13:26.645Z,1022.53
2023-04-02T06:14:26.648Z,1022.53
2023-04-02T06:15:26.645Z,1022.52
2023-04-02T06:16:26.678Z,1022.54
2023-04-02T06:17:26.699Z,1022.50
2023-04-02T06:18:26.652Z,1022.55
2023-04-02T06:19:26.657Z,1022.53
2023-04-02T06:20:26.660Z,1022.56
2023-04-02T06:21:26.660Z,1022.60
2023-04-02T06:22:26.660Z,1022.59
2023-04-02T06:23:26.712Z,1022.59
2023-04-02T06:24:26.681Z,1022.59
2023-04-02T06:25:26.672Z,1022.56
2023-04-02T06:26:26.672Z,1022.57
2023-04-02T06:27:26.676Z,1022.55
2023-04-02T06:28:26.822Z,1022.58
2023-04-02T06:29:26.674Z,1022.55
2023-04-02T06:30:26.679Z,1022.57
2023-04-02T06:31:26.715Z,1022.54
2023-04-02T06:32:26.715Z,1022.52
2023-04-02T06:33:26.720Z,1022.53
2023-04-02T06:34:26.689Z,1022.53
2023-04-02T06:35:26.683Z,1022.54
2023-04-02T06:36:26.687Z,1022.61
2023-04-02T06:37:26.685Z,1022.54
2023-04-02T06:38:26.735Z,1022.57
2023-04-02T06:39:26.708Z,1022.58
2023-04-02T06:40:26.707Z,1022.57
2023-04-02T06:41:26.711Z,1022.60
2023-04-02T06:42:26.728Z,1022.61
2023-04-02T06:43:26.701Z,1022.63
2023-04-02T06:44:26.721Z,1022.61
2023-04-02T06:45:26.746Z,1022.60
2023-04-02T06:46:26.759Z,1022.56
2023-04-02T06:47:26.756Z,1022.57
2023-04-02T06:48:26.712Z,1022.60
2023-04-02T06:49:26.742Z,1022.62
2023-04-02T06:50:26.879Z,1022.62
2023-04-02T06:51:26.725Z,1022.65
2023-04-02T06:52:26.718Z,1022.61
2023-04-02T06:53:26.729Z,1022.61
2023-04-02T06:54:26.735Z,1022.66
2023-04-02T06:55:26.762Z,1022.63
2023-04-02T06:56:26.729Z,1022.71
2023-04-02T06:57:26.809Z,1022.69
2023-04-02T06:58:26.886Z,1022.70
2023-04-02T06:59:26.733Z,1022.72
2023-04-02T07:00:26.771Z,1022.70
2023-04-02T07:01:26.782Z,1022.69
2023-04-02T07:02:26.768Z,1022.73
2023-04-02T07:03:26.991Z,1022.75
2023-04-02T07:04:26.778Z,1022.77
2023-04-02T07:05:26.764Z,1022.76
2023-04-02T07:06:26.748Z,1022.81
2023-04-02T07:07:26.753Z,1022.74
2023-04-02T07:08:26.744Z,1022.75
2023-04-02T07:09:26.761Z,1022.74
2023-04-02T07:10:26.750Z,1022.77
2023-04-02T07:11:26.747Z,1022.81
2023-04-02T07:12:26.752Z,1022.85
2023-04-02T07:13:26.758Z,1022.90
2023-04-02T07:14:26.754Z,1022.93
2023-04-02T07:15:26.772Z,1022.85
2023-04-02T07:16:26.895Z,1022.93
2023-04-02T07:17:26.805Z,1022.91
2023-04-02T07:18:26.758Z,1022.90
2023-04-02T07:19:26.756Z,1022.93
2023-04-02T07:20:26.795Z,1022.95
2023-04-02T07:21:26.801Z,1022.99
2023-04-02T07:22:26.780Z,1022.98
2023-04-02T07:23:26.779Z,1022.99
2023-04-02T07:24:26.772Z,1023.02
2023-04-02T07:25:26.776Z,1022.99
2023-04-02T07:26:26.788Z,1023.03
2023-04-02T07:27:26.791Z,1023.02
2023-04-02T07:28:26.822Z,1023.07
2023-04-02T07:29:26.777Z,1023.07
2023-04-02T07:30:26.784Z,1023.05
2023-04-02T07:31:26.865Z,1023.08
2023-04-02T07:32:26.818Z,1023.08
2023-04-02T07:33:26.789Z,1023.12
2023-04-02T07:34:26.798Z,1023.10
2023-04-02T07:35:26.788Z,1023.06
2023-04-02T07:36:26.794Z,1023.08
2023-04-02T07:37:26.831Z,1023.10
2023-04-02T07:38:26.804Z,1023.10
2023-04-02T07:39:26.800Z,1023.08
2023-04-02T07:40:26.862Z,1023.13
2023-04-02T07:41:26.808Z,1023.12
2023-04-02T07:42:26.811Z,1023.15
2023-04-02T07:43:26.835Z,1023.18
2023-04-02T07:44:26.809Z,1023.17
2023-04-02T07:45:26.804Z,1023.22
2023-04-02T07:46:26.952Z,1023.20
2023-04-02T07:47:26.835Z,1023.15
2023-04-02T07:48:26.815Z,1023.23
2023-04-02T07:49:26.816Z,1023.24
2023-04-02T07:50:26.824Z,1023.25
2023-04-02T07:51:26.822Z,1023.22
2023-04-02T07:52:26.824Z,1023.22
2023-04-02T07:53:26.847Z,1023.29
2023-04-02T07:54:26.837Z,1023.25
2023-04-02T07:55:26.835Z,1023.25
2023-04-02T07:56:26.846Z,1023.32
2023-04-02T07:57:26.862Z,1023.28
2023-04-02T07:58:26.832Z,1023.35
2023-04-02T07:59:27.133Z,1023.32
2023-04-02T08:00:26.858Z,1023.28
2023-04-02T08:01:26.865Z,1023.28
2023-04-02T08:02:26.902Z,1023.32
2023-04-02T08:03:26.978Z,1023.35
2023-04-02T08:04:26.857Z,1023.34
2023-04-02T08:05:26.859Z,1023.36
2023-04-02T08:06:26.856Z,1023.38
2023-04-02T08:07:26.851Z,1023.37
2023-04-02T08:08:26.856Z,1023.37
2023-04-02T08:09:26.881Z,1023.43
2023-04-02T08:10:26.906Z,1023.41
2023-04-02T08:11:26.867Z,1023.37
2023-04-02T08:12:26.862Z,1023.43
2023-04-02T08:13:26.869Z,1023.45
2023-04-02T08:14:26.869Z,1023.41
2023-04-02T08:15:26.868Z,1023.46
2023-04-02T08:16:26.937Z,1023.48
2023-04-02T08:17:26.891Z,1023.44
2023-04-02T08:18:26.878Z,1023.54
2023-04-02T08:19:26.875Z,1023.52
2023-04-02T08:20:26.883Z,1023.52
2023-04-02T08:21:26.884Z,1023.48
2023-04-02T08:22:26.884Z,1023.54
2023-04-02T08:23:26.888Z,1023.52
2023-04-02T08:24:26.890Z,1023.55
2023-04-02T08:25:26.925Z,1023.58
2023-04-02T08:26:26.897Z,1023.60
2023-04-02T08:27:26.890Z,1023.61
2023-04-02T08:28:26.900Z,1023.61
2023-04-02T08:29:26.898Z,1023.56
2023-04-02T08:30:27.054Z,1023.60
2023-04-02T08:31:26.938Z,1023.64
2023-04-02T08:32:26.940Z,1023.67
2023-04-02T08:33:26.908Z,1023.69
2023-04-02T08:34:26.915Z,1023.68
2023-04-02T08:35:26.918Z,1023.70
2023-04-02T08:36:26.973Z,1023.75
2023-04-02T08:37:26.923Z,1023.66
2023-04-02T08:38:26.923Z,1023.68
2023-04-02T08:39:26.920Z,1023.69
2023-04-02T08:40:26.920Z,1023.69
2023-04-02T08:41:26.947Z,1023.80
2023-04-02T08:42:26.940Z,1023.78
2023-04-02T08:43:26.937Z,1023.82
2023-04-02T08:44:26.931Z,1023.84
2023-04-02T08:45:26.931Z,1023.79
2023-04-02T08:46:26.958Z,1023.84
2023-04-02T08:47:26.956Z,1023.84
2023-04-02T08:48:26.933Z,1023.80
2023-04-02T08:49:26.941Z,1023.88
2023-04-02T08:50:26.941Z,1023.90
2023-04-02T08:51:26.941Z,1023.87
2023-04-02T08:52:26.951Z,1023.93
2023-04-02T08:53:26.959Z,1023.89
2023-04-02T08:54:27.905Z,1023.93
2023-04-02T08:55:26.953Z,1023.93
2023-04-02T08:56:26.958Z,1024.03
2023-04-02T08:57:27.061Z,1024.02
2023-04-02T08:58:26.966Z,1024.07
2023-04-02T08:59:26.966Z,1024.04
2023-04-02T09:00:26.976Z,1024.04
2023-04-02T09:01:27.022Z,1024.01
2023-04-02T09:02:27.029Z,1024.03
2023-04-02T09:03:26.992Z,1024.07
2023-04-02T09:04:27.130Z,1024.08
2023-04-02T09:05:27.006Z,1024.08
2023-04-02T09:06:27.004Z,1024.03
2023-04-02T09:07:27.017Z,1024.06
2023-04-02T09:08:27.015Z,1024.12
2023-04-02T09:09:27.023Z,1024.09
2023-04-02T09:10:27.028Z,1024.10
2023-04-02T09:11:27.034Z,1024.08
2023-04-02T09:12:27.034Z,1024.05
2023-04-02T09:13:27.161Z,1024.10
2023-04-02T09:14:27.042Z,1024.11
2023-04-02T09:15:27.061Z,1024.14
2023-04-02T09:16:27.213Z,1024.12
2023-04-02T09:17:27.066Z,1024.12
2023-04-02T09:18:27.085Z,1024.07
2023-04-02T09:19:27.067Z,1024.19
2023-04-02T09:20:27.075Z,1024.11
2023-04-02T09:21:27.077Z,1024.18
2023-04-02T09:22:27.085Z,1024.21
2023-04-02T09:23:27.089Z,1024.21
2023-04-02T09:24:27.090Z,1024.19
2023-04-02T09:25:27.154Z,1024.15
2023-04-02T09:26:27.102Z,1024.18
2023-04-02T09:27:27.100Z,1024.21
2023-04-02T09:28:27.157Z,1024.27
2023-04-02T09:29:27.134Z,1024.20
2023-04-02T09:30:27.117Z,1024.22
2023-04-02T09:31:27.194Z,1024.24
2023-04-02T09:32:27.135Z,1024.34
2023-04-02T09:33:27.135Z,1024.33
2023-04-02T09:34:27.135Z,1024.32
2023-04-02T09:35:27.261Z,1024.29
2023-04-02T09:36:27.214Z,1024.28
2023-04-02T09:37:27.151Z,1024.23
2023-04-02T09:38:27.148Z,1024.25
2023-04-02T09:39:27.148Z,1024.32
2023-04-02T09:40:27.157Z,1024.25
2023-04-02T09:41:27.180Z,1024.31
2023-04-02T09:42:27.165Z,1024.39
2023-04-02T09:43:27.166Z,1024.37
2023-04-02T09:44:27.168Z,1024.38
2023-04-02T09:45:27.203Z,1024.35
2023-04-02T09:46:27.201Z,1024.42
2023-04-02T09:47:27.211Z,1024.42
2023-04-02T09:48:27.187Z,1024.40
2023-04-02T09:49:27.197Z,1024.44
2023-04-02T09:50:27.207Z,1024.42
2023-04-02T09:51:27.213Z,1024.44
2023-04-02T09:52:27.234Z,1024.50
2023-04-02T09:53:27.220Z,1024.47
2023-04-02T09:54:27.230Z,1024.44
2023-04-02T09:55:27.260Z,1024.52
2023-04-02T09:56:27.391Z,1024.58
2023-04-02T09:57:27.386Z,1024.52
2023-04-02T09:58:27.266Z,1024.52
2023-04-02T09:59:27.269Z,1024.54
2023-04-02T10:00:32.021Z,1024.53
2023-04-02T10:01:27.391Z,1024.54
2023-04-02T10:02:27.363Z,1024.58
2023-04-02T10:03:27.312Z,1024.65
2023-04-02T10:04:27.386Z,1024.67
2023-04-02T10:05:39.849Z,1024.61
2023-04-02T10:06:27.345Z,1024.64
2023-04-02T10:07:27.362Z,1024.61
2023-04-02T10:08:27.358Z,1024.66
2023-04-02T10:09:27.390Z,1024.71
2023-04-02T10:10:27.391Z,1024.65
2023-04-02T10:11:36.342Z,1024.65
2023-04-02T10:12:27.417Z,1024.69
2023-04-02T10:13:27.422Z,1024.65
2023-04-02T10:14:27.446Z,1024.61
2023-04-02T10:15:27.456Z,1024.59
2023-04-02T10:16:27.558Z,1024.55
2023-04-02T10:17:27.533Z,1024.60
2023-04-02T10:18:27.511Z,1024.65
2023-04-02T10:19:27.568Z,1024.65
2023-04-02T10:20:27.512Z,1024.55
2023-04-02T10:21:27.591Z,1024.70
2023-04-02T10:22:27.540Z,1024.60
2023-04-02T10:23:27.556Z,1024.63
2023-04-02T10:24:27.595Z,1024.59
2023-04-02T10:25:27.588Z,1024.63
2023-04-02T10:26:27.652Z,1024.60
2023-04-02T10:27:27.598Z,1024.75
2023-04-02T10:28:27.618Z,1024.74
2023-04-02T10:29:27.619Z,1024.67
2023-04-02T10:30:27.647Z,1024.72
2023-04-02T10:31:27.733Z,1024.72
2023-04-02T10:32:27.695Z,1024.70
2023-04-02T10:33:27.685Z,1024.74
2023-04-02T10:34:27.680Z,1024.73
2023-04-02T10:35:27.714Z,1024.75
2023-04-02T10:36:27.680Z,1024.76
2023-04-02T10:37:27.695Z,1024.77
2023-04-02T10:38:27.710Z,1024.78
2023-04-02T10:39:27.703Z,1024.80
2023-04-02T10:40:27.717Z,1024.76
2023-04-02T10:41:27.719Z,1024.79
2023-04-02T10:42:27.726Z,1024.83
2023-04-02T10:43:27.742Z,1024.81
2023-04-02T10:44:27.738Z,1024.91
2023-04-02T10:45:27.760Z,1024.89
2023-04-02T10:46:27.770Z,1024.91
2023-04-02T10:47:27.800Z,1024.90
2023-04-02T10:48:27.762Z,1024.84
2023-04-02T10:49:27.848Z,1024.96
2023-04-02T10:50:27.774Z,1024.96
2023-04-02T10:51:28.035Z,1024.95
2023-04-02T10:52:27.796Z,1024.94
2023-04-02T10:53:27.795Z,1024.94
2023-04-02T10:54:27.883Z,1024.95
2023-04-02T10:55:27.803Z,1025.02
2023-04-02T10:56:29.836Z,1025.02
2023-04-02T10:57:27.859Z,1025.01
2023-04-02T10:58:27.827Z,1024.97
2023-04-02T10:59:27.821Z,1025.02
2023-04-02T11:00:27.824Z,1025.02
2023-04-02T11:01:27.848Z,1025.01
2023-04-02T11:02:27.918Z,1025.07
2023-04-02T11:03:27.927Z,1025.13
2023-04-02T11:04:27.855Z,1025.13
2023-04-02T11:05:27.871Z,1025.16
2023-04-02T11:06:28.618Z,1025.13
2023-04-02T11:07:27.961Z,1025.19
2023-04-02T11:08:27.868Z,1025.14
2023-04-02T11:09:27.872Z,1025.08
2023-04-02T11:10:27.877Z,1025.12
2023-04-02T11:11:27.896Z,1025.15
2023-04-02T11:12:27.931Z,1025.22
2023-04-02T11:13:27.889Z,1025.16
2023-04-02T11:14:27.892Z,1025.20
2023-04-02T11:15:27.902Z,1025.11
2023-04-02T11:16:27.954Z,1025.20
2023-04-02T11:17:28.213Z,1025.18
2023-04-02T11:18:27.907Z,1025.13
2023-04-02T11:19:27.916Z,1025.17
2023-04-02T11:20:27.926Z,1025.25
2023-04-02T11:21:27.941Z,1025.25
2023-04-02T11:22:27.923Z,1025.28
2023-04-02T11:23:27.949Z,1025.31
2023-04-02T11:24:27.931Z,1025.28
2023-04-02T11:25:27.932Z,1025.29
2023-04-02T11:26:27.939Z,1025.28
2023-04-02T11:27:27.953Z,1025.27
2023-04-02T11:28:27.948Z,1025.29
2023-04-02T11:29:27.978Z,1025.30
2023-04-02T11:30:27.955Z,1025.35
2023-04-02T11:31:27.964Z,1025.35
2023-04-02T11:32:27.991Z,1025.29
2023-04-02T11:33:36.358Z,1025.31
2023-04-02T11:34:27.985Z,1025.35
2023-04-02T11:35:28.026Z,1025.35
2023-04-02T11:36:27.980Z,1025.39
2023-04-02T11:37:28.006Z,1025.27
2023-04-02T11:38:27.988Z,1025.46
2023-04-02T11:39:28.000Z,1025.42
2023-04-02T11:40:27.999Z,1025.48
2023-04-02T11:41:28.002Z,1025.45
2023-04-02T11:42:28.016Z,1025.51
2023-04-02T11:43:28.012Z,1025.35
2023-04-02T11:44:28.009Z,1025.37
2023-04-02T11:45:28.023Z,1025.45
2023-04-02T11:46:28.067Z,1025.42
2023-04-02T11:47:28.095Z,1025.39
2023-04-02T11:48:28.029Z,1025.42
2023-04-02T11:49:28.234Z,1025.37
2023-04-02T11:50:28.036Z,1025.44
2023-04-02T11:51:28.042Z,1025.44
2023-04-02T11:52:28.047Z,1025.48
2023-04-02T11:53:28.091Z,1025.45
2023-04-02T11:54:28.052Z,1025.47
2023-04-02T11:55:28.057Z,1025.52
2023-04-02T11:56:28.061Z,1025.55
2023-04-02T11:57:28.120Z,1025.52
2023-04-02T11:58:28.074Z,1025.48
2023-04-02T11:59:28.070Z,1025.45
2023-04-02T12:00:28.076Z,1025.50
2023-04-02T12:01:28.086Z,1025.40
2023-04-02T12:02:28.126Z,1025.54
2023-04-02T12:03:28.081Z,1025.54
2023-04-02T12:04:28.086Z,1025.55
2023-04-02T12:05:28.147Z,1025.52